createdAt,value
2023-04-29T00:09:31.719Z,2.00
2023-04-29T00:28:10.179Z,3.20
2023-04-29T00:46:47.754Z,2.00
2023-04-29T01:05:26.623Z,1.60
2023-04-29T01:24:03.923Z,2.10
2023-04-29T01:42:43.926Z,2.40
2023-04-29T02:01:21.618Z,1.70
2023-04-29T02:38:38.983Z,3.20
2023-04-29T02:57:26.190Z,2.10
2023-04-29T03:15:58.441Z,2.00
2023-04-29T03:34:36.967Z,2.50
2023-04-29T03:53:16.325Z,2.20
2023-04-29T04:11:53.832Z,2.10
2023-04-29T04:30:31.905Z,1.90
2023-04-29T04:49:10.808Z,1.90
2023-04-29T05:07:56.045Z,2.10
2023-04-29T05:26:31.331Z,2.60
2023-04-29T05:45:12.242Z,3.30
2023-04-29T06:03:53.006Z,2.90
2023-04-29T06:22:33.505Z,2.00
2023-04-29T06:41:14.540Z,1.70
2023-04-29T06:59:57.265Z,1.90
2023-04-29T07:18:38.441Z,2.10
2023-04-29T07:37:17.704Z,2.00
2023-04-29T07:55:57.757Z,1.70
2023-04-29T08:14:41.247Z,1.70
2023-04-29T08:33:19.253Z,1.00
2023-04-29T08:51:59.267Z,0.70
2023-04-29T09:10:38.097Z,1.70
2023-04-29T09:29:18.263Z,1.30
2023-04-29T09:48:00.855Z,1.30
2023-04-29T10:06:43.733Z,1.30
2023-04-29T10:44:23.289Z,1.40
2023-04-29T11:03:10.546Z,0.60
2023-04-29T11:21:59.981Z,0.70
2023-04-29T11:40:48.017Z,0.80
2023-04-29T11:59:31.157Z,0.10
2023-04-29T12:18:16.445Z,0.50
2023-04-29T12:36:55.385Z,0.80
2023-04-29T12:55:41.398Z,0.30
2023-04-29T13:14:27.837Z,0.50
2023-04-29T13:32:54.592Z,0.80
2023-04-29T14:09:41.950Z,1.70
2023-04-29T14:28:21.303Z,0.80
2023-04-29T14:47:18.373Z,0.20
2023-04-29T15:24:27.225Z,0.50
2023-04-29T16:01:46.619Z,0.60
2023-04-29T16:20:19.923Z,0.50
2023-04-29T16:39:01.086Z,0.50
2023-04-29T16:57:48.934Z,0.60
2023-04-29T17:16:21.671Z,0.60
2023-04-29T17:34:56.327Z,1.30
2023-04-29T17:53:31.746Z,1.90
2023-04-29T18:12:07.775Z,3.20
2023-04-29T19:07:53.948Z,1.90
2023-04-29T19:26:32.263Z,1.50
2023-04-29T19:45:04.796Z,1.90
2023-04-29T20:22:22.145Z,1.20
2023-04-29T20:41:00.553Z,2.10
2023-04-29T20:59:39.777Z,3.30
2023-04-29T21:18:17.784Z,2.30
2023-04-29T21:36:55.764Z,4.40
2023-04-29T21:55:33.734Z,2.20
2023-04-29T22:14:11.299Z,1.60
2023-04-29T22:32:52.552Z,1.70
2023-04-29T22:51:29.024Z,0.70
2023-04-29T23:10:08.053Z,1.50
2023-04-29T23:28:46.841Z,2.00
